Biklabito, New Mexico
Current Conditions -  °F | °C
As of 7:53 AM on Thursday 18 Dec 2014 (Local Time) from KFMN Reporting Station
Haze Haze  
Wind Chill: 33°   Ceiling: 4400
Heat Index: 33°   Visibility: 3mi
Dew Point: 31°   Wind: 3mph
Humidity: 92%   Direction: 50°NE
Pressure: 30.13"   Gusts: NA
Location:  36.3945°N, 108.769°W
Report Text: KFMN 181453Z 05003KT 3SM BR OVC044 01/M01 A3013 RMK AO2 SLP217 T00061006 53010
Loading
Personal Weather Stations






























Interactive Weather Map New forecast layout! Learn more

10-Day Weather Forecast

Advertisements
Track Severe Weather on mobile